createdAt,value
2022-12-24T00:02:25.279Z,13.23
2022-12-24T00:04:55.664Z,13.32
2022-12-24T00:07:27.100Z,13.70
2022-12-24T00:09:53.661Z,11.45
2022-12-24T00:12:20.293Z,12.93
2022-12-24T00:14:46.923Z,10.75
2022-12-24T00:17:13.603Z,12.07
2022-12-24T00:19:40.253Z,10.27
2022-12-24T00:22:07.593Z,8.85
2022-12-24T00:24:34.185Z,11.23
2022-12-24T00:27:00.863Z,11.63
2022-12-24T00:29:27.672Z,10.38
2022-12-24T00:31:54.333Z,13.10
2022-12-24T00:34:23.834Z,12.63
2022-12-24T00:36:51.692Z,10.15
2022-12-24T00:39:18.612Z,11.65
2022-12-24T00:41:45.169Z,10.30
2022-12-24T00:44:12.197Z,12.32
2022-12-24T00:46:41.420Z,12.35
2022-12-24T00:49:09.285Z,12.60
2022-12-24T00:51:37.212Z,11.50
2022-12-24T00:54:04.751Z,11.43
2022-12-24T00:56:31.383Z,11.55
2022-12-24T00:58:58.019Z,9.80
2022-12-24T01:01:25.306Z,7.97
2022-12-24T01:03:52.820Z,11.13
2022-12-24T01:06:21.658Z,11.68
2022-12-24T01:08:51.778Z,10.05
2022-12-24T01:11:18.745Z,12.15
2022-12-24T01:13:45.375Z,11.02
2022-12-24T01:16:20.276Z,10.70
2022-12-24T01:18:47.540Z,10.40
2022-12-24T01:21:15.670Z,9.43
2022-12-24T01:23:42.719Z,12.45
2022-12-24T01:26:12.253Z,11.30
2022-12-24T01:28:39.035Z,12.65
2022-12-24T01:31:17.298Z,11.70
2022-12-24T01:33:45.489Z,12.55
2022-12-24T01:36:13.808Z,12.50
2022-12-24T01:38:41.036Z,12.35
2022-12-24T01:41:26.504Z,12.60
2022-12-24T01:43:53.120Z,10.60
2022-12-24T01:46:26.671Z,9.68
2022-12-24T01:49:02.038Z,12.70
2022-12-24T01:51:46.396Z,12.50
2022-12-24T01:54:27.298Z,10.75
2022-12-24T01:56:59.667Z,11.85
2022-12-24T01:59:26.639Z,8.63
2022-12-24T02:01:53.957Z,11.10
2022-12-24T02:04:26.737Z,15.05
2022-12-24T02:06:53.434Z,9.15
2022-12-24T02:09:20.380Z,13.82
2022-12-24T02:11:47.492Z,13.18
2022-12-24T02:14:15.770Z,11.68
2022-12-24T02:16:47.572Z,13.23
2022-12-24T02:19:51.572Z,13.18
2022-12-24T02:22:42.383Z,13.02
2022-12-24T02:25:34.060Z,15.05
2022-12-24T02:28:26.354Z,13.57
2022-12-24T02:30:59.594Z,12.57
2022-12-24T02:33:57.786Z,15.98
2022-12-24T02:36:32.659Z,13.48
2022-12-24T02:39:07.105Z,11.77
2022-12-24T02:41:55.417Z,13.30
2022-12-24T02:44:26.187Z,12.85
2022-12-24T02:46:53.610Z,10.60
2022-12-24T02:49:24.368Z,13.07
2022-12-24T02:51:51.254Z,13.73
2022-12-24T02:54:18.180Z,11.50
2022-12-24T02:57:25.511Z,13.68
2022-12-24T02:59:59.531Z,15.38
2022-12-24T03:03:00.639Z,15.43
2022-12-24T03:05:38.629Z,11.45
2022-12-24T03:08:14.724Z,14.52
2022-12-24T03:11:12.215Z,13.95
2022-12-24T03:13:40.278Z,15.30
2022-12-24T03:16:10.630Z,15.50
2022-12-24T03:18:39.385Z,16.95
2022-12-24T03:21:11.440Z,17.90
2022-12-24T03:23:38.275Z,16.42
2022-12-24T03:26:09.149Z,16.75
2022-12-24T03:28:39.468Z,14.02
2022-12-24T03:31:07.710Z,15.93
2022-12-24T03:33:34.856Z,17.17
2022-12-24T03:36:02.935Z,17.27
2022-12-24T03:38:29.667Z,15.95
2022-12-24T03:40:56.786Z,16.60
2022-12-24T03:43:23.654Z,12.52
2022-12-24T03:45:53.480Z,14.07
2022-12-24T03:48:20.981Z,13.95
2022-12-24T03:50:48.357Z,15.23
2022-12-24T03:53:15.012Z,13.77
2022-12-24T03:55:41.593Z,13.55
2022-12-24T03:58:09.024Z,16.05
2022-12-24T04:00:35.669Z,16.05
2022-12-24T04:03:02.342Z,16.65
2022-12-24T04:05:29.012Z,16.40
2022-12-24T04:07:55.620Z,13.88
2022-12-24T04:10:22.281Z,14.82
2022-12-24T04:12:51.405Z,14.38
2022-12-24T04:15:17.994Z,13.98
2022-12-24T04:17:44.580Z,15.07
2022-12-24T04:20:12.702Z,16.63
2022-12-24T04:22:39.305Z,14.85
2022-12-24T04:25:06.499Z,14.05
2022-12-24T04:27:33.532Z,14.95
2022-12-24T04:30:00.142Z,14.13
2022-12-24T04:32:27.352Z,16.70
2022-12-24T04:34:55.517Z,11.52
2022-12-24T04:37:22.177Z,15.82
2022-12-24T04:39:48.778Z,13.50
2022-12-24T04:42:18.812Z,14.75
2022-12-24T04:44:45.360Z,14.63
2022-12-24T04:47:13.417Z,13.93
2022-12-24T04:49:40.000Z,9.45
2022-12-24T04:52:06.655Z,13.88
2022-12-24T04:54:33.272Z,15.27
2022-12-24T04:57:01.609Z,15.65
2022-12-24T04:59:28.184Z,15.48
2022-12-24T05:01:54.945Z,15.50
2022-12-24T05:04:21.691Z,16.42
2022-12-24T05:06:48.303Z,18.05
2022-12-24T05:09:14.882Z,17.85
2022-12-24T05:11:41.488Z,20.30
2022-12-24T05:14:08.080Z,10.07
2022-12-24T05:16:34.685Z,16.00
2022-12-24T05:19:02.095Z,17.85
2022-12-24T05:21:28.644Z,17.33
2022-12-24T05:24:14.561Z,16.58
2022-12-24T05:26:58.987Z,16.80
2022-12-24T05:29:27.187Z,18.08
2022-12-24T05:31:53.820Z,18.25
2022-12-24T05:34:20.386Z,16.80
2022-12-24T05:36:47.033Z,18.08
2022-12-24T05:39:16.496Z,17.60
2022-12-24T05:41:43.680Z,17.83
2022-12-24T05:44:10.355Z,15.93
2022-12-24T05:46:37.899Z,17.20
2022-12-24T05:49:04.594Z,17.80
2022-12-24T05:51:31.274Z,18.70
2022-12-24T05:53:57.997Z,17.90
2022-12-24T05:56:25.839Z,18.55
2022-12-24T05:58:54.442Z,17.90
2022-12-24T06:01:22.368Z,17.27
2022-12-24T06:03:51.865Z,16.70
2022-12-24T06:06:24.690Z,17.13
2022-12-24T06:08:52.928Z,16.50
2022-12-24T06:11:22.306Z,15.43
2022-12-24T06:13:49.718Z,17.58
